sensor_id;sensor_type;location;lat;lon;timestamp;P1;durP1;ratioP1;P2;durP2;ratioP2
66663;SDS011;59683;51.428;-1.994;2023-08-06T06:16:01;11.00;;;3.70;;
66663;SDS011;59683;51.428;-1.994;2023-08-06T06:18:26;9.27;;;2.77;;
66663;SDS011;59683;51.428;-1.994;2023-08-06T06:20:52;9.77;;;3.00;;
66663;SDS011;59683;51.428;-1.994;2023-08-06T06:23:17;6.47;;;2.43;;
66663;SDS011;59683;51.428;-1.994;2023-08-06T06:25:52;6.37;;;2.27;;
66663;SDS011;59683;51.428;-1.994;2023-08-06T06:28:18;3.77;;;1.90;;
66663;SDS011;59683;51.428;-1.994;2023-08-06T06:30:43;4.63;;;1.57;;
66663;SDS011;59683;51.428;-1.994;2023-08-06T06:33:09;5.50;;;1.57;;
66663;SDS011;59683;51.428;-1.994;2023-08-06T06:35:34;4.00;;;1.30;;
66663;SDS011;59683;51.428;-1.994;2023-08-06T06:37:59;2.50;;;1.13;;
66663;SDS011;59683;51.428;-1.994;2023-08-06T06:40:25;7.13;;;1.27;;
66663;SDS011;59683;51.428;-1.994;2023-08-06T06:42:51;4.13;;;0.90;;
66663;SDS011;59683;51.428;-1.994;2023-08-06T06:45:16;3.13;;;0.73;;
66663;SDS011;59683;51.428;-1.994;2023-08-06T06:47:41;4.43;;;0.97;;
66663;SDS011;59683;51.428;-1.994;2023-08-06T06:50:07;2.40;;;0.80;;
66663;SDS011;59683;51.428;-1.994;2023-08-06T06:52:33;4.37;;;0.70;;
66663;SDS011;59683;51.428;-1.994;2023-08-06T06:54:58;3.60;;;0.80;;
66663;SDS011;59683;51.428;-1.994;2023-08-06T06:57:23;3.80;;;0.90;;
66663;SDS011;59683;51.428;-1.994;2023-08-06T06:59:49;2.00;;;0.80;;
66663;SDS011;59683;51.428;-1.994;2023-08-06T07:02:14;4.27;;;1.47;;
66663;SDS011;59683;51.428;-1.994;2023-08-06T07:04:40;2.43;;;0.60;;
66663;SDS011;59683;51.428;-1.994;2023-08-06T07:07:05;2.53;;;0.70;;
66663;SDS011;59683;51.428;-1.994;2023-08-06T07:09:30;2.77;;;0.60;;
66663;SDS011;59683;51.428;-1.994;2023-08-06T07:11:56;3.97;;;0.70;;
66663;SDS011;59683;51.428;-1.994;2023-08-06T07:14:21;2.23;;;0.73;;
66663;SDS011;59683;51.428;-1.994;2023-08-06T07:16:46;4.07;;;0.80;;
66663;SDS011;59683;51.428;-1.994;2023-08-06T08:44:44;0.90;;;0.30;;
66663;SDS011;59683;51.428;-1.994;2023-08-06T09:01:18;1.53;;;0.50;;
66663;SDS011;59683;51.428;-1.994;2023-08-06T09:25:26;2.58;;;0.30;;
66663;SDS011;59683;51.428;-1.994;2023-08-06T09:31:18;0.82;;;0.30;;
66663;SDS011;59683;51.428;-1.994;2023-08-06T10:19:26;0.80;;;0.40;;
66663;SDS011;59683;51.428;-1.994;2023-08-06T10:22:18;1.35;;;0.30;;
66663;SDS011;59683;51.428;-1.994;2023-08-06T10:34:05;0.85;;;0.17;;
66663;SDS011;59683;51.428;-1.994;2023-08-06T10:36:32;2.05;;;0.10;;
66663;SDS011;59683;51.428;-1.994;2023-08-06T10:42:20;2.17;;;0.38;;
66663;SDS011;59683;51.428;-1.994;2023-08-06T11:22:43;0.80;;;0.20;;
66663;SDS011;59683;51.428;-1.994;2023-08-06T11:29:28;1.75;;;0.10;;
66663;SDS011;59683;51.428;-1.994;2023-08-06T12:31:23;0.70;;;0.20;;
66663;SDS011;59683;51.428;-1.994;2023-08-06T12:45:07;2.37;;;0.20;;
66663;SDS011;59683;51.428;-1.994;2023-08-06T13:34:35;1.13;;;0.43;;
66663;SDS011;59683;51.428;-1.994;2023-08-06T13:37:00;0.93;;;0.40;;
66663;SDS011;59683;51.428;-1.994;2023-08-06T13:39:25;1.70;;;0.40;;
66663;SDS011;59683;51.428;-1.994;2023-08-06T13:41:51;0.40;;;0.20;;
66663;SDS011;59683;51.428;-1.994;2023-08-06T13:44:17;2.03;;;0.20;;
66663;SDS011;59683;51.428;-1.994;2023-08-06T13:46:42;1.80;;;0.30;;
66663;SDS011;59683;51.428;-1.994;2023-08-06T13:49:07;1.67;;;0.20;;
66663;SDS011;59683;51.428;-1.994;2023-08-06T13:51:33;0.47;;;0.17;;
66663;SDS011;59683;51.428;-1.994;2023-08-06T13:54:00;1.30;;;0.20;;
66663;SDS011;59683;51.428;-1.994;2023-08-06T13:56:26;1.17;;;0.15;;
66663;SDS011;59683;51.428;-1.994;2023-08-06T13:58:51;0.87;;;0.20;;
66663;SDS011;59683;51.428;-1.994;2023-08-06T14:01:17;1.20;;;0.20;;
66663;SDS011;59683;51.428;-1.994;2023-08-06T14:03:43;0.65;;;0.20;;
66663;SDS011;59683;51.428;-1.994;2023-08-06T14:06:09;1.15;;;0.30;;
66663;SDS011;59683;51.428;-1.994;2023-08-06T14:08:34;0.50;;;0.10;;
66663;SDS011;59683;51.428;-1.994;2023-08-06T14:11:00;0.63;;;0.13;;
66663;SDS011;59683;51.428;-1.994;2023-08-06T14:13:25;0.05;;;0.00;;
66663;SDS011;59683;51.428;-1.994;2023-08-06T14:15:50;0.00;;;0.00;;
66663;SDS011;59683;51.428;-1.994;2023-08-06T14:18:16;0.20;;;0.10;;
66663;SDS011;59683;51.428;-1.994;2023-08-06T14:20:42;0.20;;;0.10;;
66663;SDS011;59683;51.428;-1.994;2023-08-06T14:23:08;0.22;;;0.08;;
66663;SDS011;59683;51.428;-1.994;2023-08-06T14:25:33;0.40;;;0.17;;
66663;SDS011;59683;51.428;-1.994;2023-08-06T14:27:58;0.20;;;0.10;;
66663;SDS011;59683;51.428;-1.994;2023-08-06T14:30:24;0.40;;;0.20;;
66663;SDS011;59683;51.428;-1.994;2023-08-06T14:32:49;0.68;;;0.20;;
66663;SDS011;59683;51.428;-1.994;2023-08-06T14:35:15;1.55;;;0.30;;
66663;SDS011;59683;51.428;-1.994;2023-08-06T14:37:40;0.63;;;0.20;;
66663;SDS011;59683;51.428;-1.994;2023-08-06T14:40:06;0.80;;;0.20;;
66663;SDS011;59683;51.428;-1.994;2023-08-06T14:42:33;0.20;;;0.10;;
66663;SDS011;59683;51.428;-1.994;2023-08-06T14:44:58;0.60;;;0.10;;
66663;SDS011;59683;51.428;-1.994;2023-08-06T14:47:23;0.70;;;0.27;;
66663;SDS011;59683;51.428;-1.994;2023-08-06T14:49:49;0.20;;;0.10;;
66663;SDS011;59683;51.428;-1.994;2023-08-06T14:52:15;0.67;;;0.20;;
66663;SDS011;59683;51.428;-1.994;2023-08-06T14:54:41;0.13;;;0.10;;
66663;SDS011;59683;51.428;-1.994;2023-08-06T14:57:06;0.87;;;0.10;;
66663;SDS011;59683;51.428;-1.994;2023-08-06T14:59:33;0.10;;;0.10;;
66663;SDS011;59683;51.428;-1.994;2023-08-06T15:01:58;0.53;;;0.20;;
66663;SDS011;59683;51.428;-1.994;2023-08-06T15:04:24;1.07;;;0.40;;
66663;SDS011;59683;51.428;-1.994;2023-08-06T15:06:49;0.32;;;0.13;;
66663;SDS011;59683;51.428;-1.994;2023-08-06T15:09:15;1.05;;;0.25;;
66663;SDS011;59683;51.428;-1.994;2023-08-06T15:11:40;1.55;;;0.10;;
66663;SDS011;59683;51.428;-1.994;2023-08-06T15:14:05;1.13;;;0.30;;
66663;SDS011;59683;51.428;-1.994;2023-08-06T15:16:32;1.05;;;0.20;;
66663;SDS011;59683;51.428;-1.994;2023-08-06T15:19:01;1.55;;;0.20;;
66663;SDS011;59683;51.428;-1.994;2023-08-06T15:21:26;0.52;;;0.20;;
66663;SDS011;59683;51.428;-1.994;2023-08-06T15:23:52;1.25;;;0.47;;
66663;SDS011;59683;51.428;-1.994;2023-08-06T15:26:18;0.47;;;0.20;;
66663;SDS011;59683;51.428;-1.994;2023-08-06T15:28:44;2.93;;;0.37;;
66663;SDS011;59683;51.428;-1.994;2023-08-06T15:31:09;2.00;;;0.30;;
66663;SDS011;59683;51.428;-1.994;2023-08-06T15:33:35;1.57;;;0.30;;
66663;SDS011;59683;51.428;-1.994;2023-08-06T15:36:00;1.87;;;0.30;;
66663;SDS011;59683;51.428;-1.994;2023-08-06T15:38:26;1.60;;;0.40;;
66663;SDS011;59683;51.428;-1.994;2023-08-06T15:40:51;1.47;;;0.50;;
66663;SDS011;59683;51.428;-1.994;2023-08-06T15:43:16;3.33;;;0.87;;
66663;SDS011;59683;51.428;-1.994;2023-08-06T15:45:42;5.10;;;1.00;;
66663;SDS011;59683;51.428;-1.994;2023-08-06T15:48:07;2.83;;;0.50;;
66663;SDS011;59683;51.428;-1.994;2023-08-06T15:50:36;4.87;;;0.60;;
66663;SDS011;59683;51.428;-1.994;2023-08-06T15:53:02;0.57;;;0.37;;
66663;SDS011;59683;51.428;-1.994;2023-08-06T15:55:28;2.47;;;0.40;;
66663;SDS011;59683;51.428;-1.994;2023-08-06T15:57:53;1.33;;;0.50;;
66663;SDS011;59683;51.428;-1.994;2023-08-06T16:00:19;2.43;;;0.60;;
66663;SDS011;59683;51.428;-1.994;2023-08-06T16:02:44;1.00;;;0.43;;
66663;SDS011;59683;51.428;-1.994;2023-08-06T16:05:10;1.83;;;0.40;;
66663;SDS011;59683;51.428;-1.994;2023-08-06T16:07:36;2.80;;;0.43;;
66663;SDS011;59683;51.428;-1.994;2023-08-06T16:10:01;0.33;;;0.10;;
66663;SDS011;59683;51.428;-1.994;2023-08-06T16:12:27;3.73;;;0.57;;
66663;SDS011;59683;51.428;-1.994;2023-08-06T16:14:53;2.47;;;0.30;;
66663;SDS011;59683;51.428;-1.994;2023-08-06T16:17:19;0.87;;;0.30;;
66663;SDS011;59683;51.428;-1.994;2023-08-06T16:19:44;1.10;;;0.30;;
66663;SDS011;59683;51.428;-1.994;2023-08-06T16:22:10;2.03;;;0.38;;
66663;SDS011;59683;51.428;-1.994;2023-08-06T16:24:35;2.10;;;0.20;;
66663;SDS011;59683;51.428;-1.994;2023-08-06T16:27:00;1.60;;;0.38;;
66663;SDS011;59683;51.428;-1.994;2023-08-06T16:29:26;1.30;;;0.20;;
66663;SDS011;59683;51.428;-1.994;2023-08-06T16:31:51;1.83;;;0.38;;
66663;SDS011;59683;51.428;-1.994;2023-08-06T16:34:18;2.42;;;0.40;;
66663;SDS011;59683;51.428;-1.994;2023-08-06T16:36:43;3.92;;;0.40;;
66663;SDS011;59683;51.428;-1.994;2023-08-06T16:39:09;1.10;;;0.20;;
66663;SDS011;59683;51.428;-1.994;2023-08-06T16:41:35;1.38;;;0.30;;
66663;SDS011;59683;51.428;-1.994;2023-08-06T16:44:00;1.13;;;0.40;;
66663;SDS011;59683;51.428;-1.994;2023-08-06T16:46:26;2.20;;;0.40;;
66663;SDS011;59683;51.428;-1.994;2023-08-06T16:48:51;1.30;;;0.10;;
66663;SDS011;59683;51.428;-1.994;2023-08-06T16:51:17;0.08;;;0.00;;
66663;SDS011;59683;51.428;-1.994;2023-08-06T16:53:42;0.57;;;0.25;;
66663;SDS011;59683;51.428;-1.994;2023-08-06T16:56:11;0.50;;;0.10;;
66663;SDS011;59683;51.428;-1.994;2023-08-06T16:58:36;0.30;;;0.10;;
66663;SDS011;59683;51.428;-1.994;2023-08-06T17:01:02;0.53;;;0.17;;
66663;SDS011;59683;51.428;-1.994;2023-08-06T17:03:30;0.40;;;0.10;;
66663;SDS011;59683;51.428;-1.994;2023-08-06T17:05:56;0.47;;;0.10;;
66663;SDS011;59683;51.428;-1.994;2023-08-06T17:08:21;0.83;;;0.20;;
66663;SDS011;59683;51.428;-1.994;2023-08-06T17:10:47;0.90;;;0.30;;
66663;SDS011;59683;51.428;-1.994;2023-08-06T17:13:13;2.13;;;0.40;;
66663;SDS011;59683;51.428;-1.994;2023-08-06T17:15:38;1.33;;;0.47;;
66663;SDS011;59683;51.428;-1.994;2023-08-06T17:18:03;1.50;;;0.60;;
66663;SDS011;59683;51.428;-1.994;2023-08-06T17:20:29;0.83;;;0.40;;
66663;SDS011;59683;51.428;-1.994;2023-08-06T17:22:54;1.17;;;0.40;;
66663;SDS011;59683;51.428;-1.994;2023-08-06T17:25:20;2.70;;;0.67;;
66663;SDS011;59683;51.428;-1.994;2023-08-06T17:27:47;1.87;;;0.40;;
66663;SDS011;59683;51.428;-1.994;2023-08-06T17:30:12;2.93;;;0.47;;
66663;SDS011;59683;51.428;-1.994;2023-08-06T17:32:38;3.87;;;0.73;;
66663;SDS011;59683;51.428;-1.994;2023-08-06T17:35:05;1.03;;;0.37;;
66663;SDS011;59683;51.428;-1.994;2023-08-06T17:37:31;2.73;;;0.50;;
66663;SDS011;59683;51.428;-1.994;2023-08-06T17:39:57;3.10;;;0.60;;
66663;SDS011;59683;51.428;-1.994;2023-08-06T17:42:22;1.07;;;0.30;;
66663;SDS011;59683;51.428;-1.994;2023-08-06T17:44:47;1.50;;;0.57;;
66663;SDS011;59683;51.428;-1.994;2023-08-06T17:47:13;2.23;;;0.43;;
66663;SDS011;59683;51.428;-1.994;2023-08-06T17:49:38;1.13;;;0.43;;
66663;SDS011;59683;51.428;-1.994;2023-08-06T17:52:07;4.13;;;0.60;;
66663;SDS011;59683;51.428;-1.994;2023-08-06T17:54:33;2.70;;;0.57;;
66663;SDS011;59683;51.428;-1.994;2023-08-06T17:56:59;1.07;;;0.50;;
66663;SDS011;59683;51.428;-1.994;2023-08-06T17:59:24;2.70;;;1.30;;
66663;SDS011;59683;51.428;-1.994;2023-08-06T18:01:50;2.00;;;0.50;;
66663;SDS011;59683;51.428;-1.994;2023-08-06T18:04:15;2.03;;;0.70;;
66663;SDS011;59683;51.428;-1.994;2023-08-06T18:06:40;1.63;;;0.50;;
66663;SDS011;59683;51.428;-1.994;2023-08-06T18:09:06;2.03;;;0.70;;
66663;SDS011;59683;51.428;-1.994;2023-08-06T18:11:31;1.53;;;0.50;;
66663;SDS011;59683;51.428;-1.994;2023-08-06T18:13:57;1.23;;;0.40;;
66663;SDS011;59683;51.428;-1.994;2023-08-06T18:16:22;0.63;;;0.40;;
66663;SDS011;59683;51.428;-1.994;2023-08-06T18:18:47;1.13;;;0.50;;
66663;SDS011;59683;51.428;-1.994;2023-08-06T18:21:16;1.80;;;0.40;;
66663;SDS011;59683;51.428;-1.994;2023-08-06T18:23:42;1.73;;;0.73;;
66663;SDS011;59683;51.428;-1.994;2023-08-06T18:26:07;1.27;;;0.50;;
66663;SDS011;59683;51.428;-1.994;2023-08-06T18:28:33;1.47;;;0.50;;
66663;SDS011;59683;51.428;-1.994;2023-08-06T18:30:58;0.53;;;0.33;;
66663;SDS011;59683;51.428;-1.994;2023-08-06T18:33:23;2.83;;;0.57;;
66663;SDS011;59683;51.428;-1.994;2023-08-06T18:35:49;1.70;;;0.47;;
66663;SDS011;59683;51.428;-1.994;2023-08-06T18:38:14;1.40;;;0.33;;
66663;SDS011;59683;51.428;-1.994;2023-08-06T18:40:40;2.23;;;0.57;;
66663;SDS011;59683;51.428;-1.994;2023-08-06T18:43:05;2.10;;;0.50;;
66663;SDS011;59683;51.428;-1.994;2023-08-06T18:45:33;1.87;;;0.60;;
66663;SDS011;59683;51.428;-1.994;2023-08-06T18:48:04;3.10;;;0.80;;
66663;SDS011;59683;51.428;-1.994;2023-08-06T18:50:33;1.47;;;0.50;;
66663;SDS011;59683;51.428;-1.994;2023-08-06T18:53:02;2.17;;;0.80;;
66663;SDS011;59683;51.428;-1.994;2023-08-06T18:55:31;1.53;;;0.60;;
66663;SDS011;59683;51.428;-1.994;2023-08-06T18:58:00;1.93;;;0.40;;
66663;SDS011;59683;51.428;-1.994;2023-08-06T19:00:28;1.50;;;0.60;;
66663;SDS011;59683;51.428;-1.994;2023-08-06T19:02:53;2.30;;;0.73;;
66663;SDS011;59683;51.428;-1.994;2023-08-06T19:05:19;2.33;;;1.00;;
66663;SDS011;59683;51.428;-1.994;2023-08-06T19:07:44;1.97;;;0.73;;
66663;SDS011;59683;51.428;-1.994;2023-08-06T19:10:10;2.40;;;0.70;;
66663;SDS011;59683;51.428;-1.994;2023-08-06T19:12:35;1.30;;;0.63;;
66663;SDS011;59683;51.428;-1.994;2023-08-06T19:15:00;2.87;;;0.73;;
66663;SDS011;59683;51.428;-1.994;2023-08-06T19:17:26;2.07;;;0.80;;
66663;SDS011;59683;51.428;-1.994;2023-08-06T19:19:51;2.63;;;0.87;;
66663;SDS011;59683;51.428;-1.994;2023-08-06T19:22:17;2.43;;;1.00;;
66663;SDS011;59683;51.428;-1.994;2023-08-06T19:24:42;4.40;;;1.30;;
66663;SDS011;59683;51.428;-1.994;2023-08-06T19:27:07;4.67;;;1.07;;
66663;SDS011;59683;51.428;-1.994;2023-08-06T19:29:33;4.90;;;1.30;;
66663;SDS011;59683;51.428;-1.994;2023-08-06T19:31:59;4.37;;;1.30;;
66663;SDS011;59683;51.428;-1.994;2023-08-06T19:34:24;4.57;;;1.60;;
66663;SDS011;59683;51.428;-1.994;2023-08-06T19:36:50;6.27;;;1.70;;
66663;SDS011;59683;51.428;-1.994;2023-08-06T19:39:15;5.07;;;2.40;;
66663;SDS011;59683;51.428;-1.994;2023-08-06T19:41:41;7.43;;;2.77;;
66663;SDS011;59683;51.428;-1.994;2023-08-06T19:44:07;8.43;;;2.23;;
66663;SDS011;59683;51.428;-1.994;2023-08-06T19:46:32;5.70;;;2.87;;
66663;SDS011;59683;51.428;-1.994;2023-08-06T19:48:58;7.60;;;2.20;;
66663;SDS011;59683;51.428;-1.994;2023-08-06T19:51:23;5.83;;;2.43;;
66663;SDS011;59683;51.428;-1.994;2023-08-06T19:53:50;7.10;;;2.10;;
66663;SDS011;59683;51.428;-1.994;2023-08-06T19:56:15;6.53;;;3.00;;
66663;SDS011;59683;51.428;-1.994;2023-08-06T19:58:41;7.47;;;2.37;;
66663;SDS011;59683;51.428;-1.994;2023-08-06T20:01:06;5.50;;;2.30;;
66663;SDS011;59683;51.428;-1.994;2023-08-06T20:03:34;5.78;;;2.08;;
66663;SDS011;59683;51.428;-1.994;2023-08-06T20:06:02;9.10;;;2.13;;
66663;SDS011;59683;51.428;-1.994;2023-08-06T20:08:30;5.13;;;2.08;;
66663;SDS011;59683;51.428;-1.994;2023-08-06T20:10:56;8.27;;;1.92;;
66663;SDS011;59683;51.428;-1.994;2023-08-06T20:13:22;5.60;;;2.00;;
66663;SDS011;59683;51.428;-1.994;2023-08-06T20:15:49;5.50;;;1.90;;
66663;SDS011;59683;51.428;-1.994;2023-08-06T20:18:15;5.97;;;2.40;;
66663;SDS011;59683;51.428;-1.994;2023-08-06T20:20:41;6.30;;;1.90;;
66663;SDS011;59683;51.428;-1.994;2023-08-06T20:23:07;3.57;;;1.40;;
66663;SDS011;59683;51.428;-1.994;2023-08-06T20:25:33;8.17;;;1.93;;
66663;SDS011;59683;51.428;-1.994;2023-08-06T20:27:59;3.22;;;1.38;;
66663;SDS011;59683;51.428;-1.994;2023-08-06T20:30:24;4.07;;;1.33;;
66663;SDS011;59683;51.428;-1.994;2023-08-06T20:32:50;5.23;;;1.37;;
66663;SDS011;59683;51.428;-1.994;2023-08-06T20:35:15;4.27;;;1.50;;
66663;SDS011;59683;51.428;-1.994;2023-08-06T20:37:41;5.37;;;1.70;;
66663;SDS011;59683;51.428;-1.994;2023-08-06T20:40:06;4.40;;;1.40;;
66663;SDS011;59683;51.428;-1.994;2023-08-06T20:42:33;4.20;;;1.48;;
66663;SDS011;59683;51.428;-1.994;2023-08-06T20:44:59;5.03;;;1.57;;
66663;SDS011;59683;51.428;-1.994;2023-08-06T20:47:24;5.37;;;1.40;;
66663;SDS011;59683;51.428;-1.994;2023-08-06T20:49:50;4.47;;;1.60;;
66663;SDS011;59683;51.428;-1.994;2023-08-06T20:52:15;5.73;;;1.97;;
66663;SDS011;59683;51.428;-1.994;2023-08-06T20:54:44;4.27;;;1.73;;
